Time;durP1;ratioP1;P1;durP2;ratioP2;P2;SDS_P1;SDS_P2;PMS_P1;PMS_P2;Temp;Humidity;BMP_temperature;BMP_pressure;BME280_temperature;BME280_humidity;BME280_pressure;Samples;Min_cycle;Max_cycle;Signal;HPM_P1;HPM_P2
2021/10/25 00:00:10;;;;;;;1.22;1.06;;;;;;;8.19;50.52;101817.61;444752;117;922678;-75
2021/10/25 00:01:16;;;;;;;0.88;0.86;;;;;;;8.16;50.39;101811.67;444665;119;922649;-75
2021/10/25 00:02:20;;;;;;;2.04;0.78;;;;;;;8.17;50.38;101810.63;444528;117;922725;-74
2021/10/25 00:03:23;;;;;;;1.14;0.95;;;;;;;8.18;50.33;101806.91;444387;118;922875;-76
2021/10/25 00:04:27;;;;;;;0.95;0.92;;;;;;;8.17;50.15;101819.64;444809;119;930095;-76
2021/10/25 00:05:31;;;;;;;0.92;0.80;;;;;;;8.15;50.17;101815.41;444346;117;922272;-75
2021/10/25 00:06:34;;;;;;;1.56;0.96;;;;;;;8.16;50.15;101826.08;444882;119;922533;-76
2021/10/25 00:07:38;;;;;;;1.28;1.18;;;;;;;8.14;50.08;101824.57;444682;117;930782;-75
2021/10/25 00:08:41;;;;;;;1.14;0.87;;;;;;;8.13;50.08;101818.28;444865;119;922601;-76
2021/10/25 00:09:45;;;;;;;2.31;0.82;;;;;;;8.14;50.08;101825.42;444833;117;930188;-76
2021/10/25 00:10:48;;;;;;;2.18;1.02;;;;;;;8.11;49.67;101819.45;444716;117;930299;-76
2021/10/25 00:11:51;;;;;;;1.00;0.96;;;;;;;8.11;49.79;101825.73;444766;119;930601;-76
2021/10/25 00:12:55;;;;;;;1.77;0.78;;;;;;;8.08;49.79;101827.95;444793;117;930178;-76
2021/10/25 00:13:58;;;;;;;0.76;0.76;;;;;;;8.10;49.82;101828.65;444850;119;923095;-75
2021/10/25 00:15:03;;;;;;;1.34;1.15;;;;;;;8.00;49.60;101828.78;444932;119;922511;-75
2021/10/25 00:16:07;;;;;;;1.18;0.87;;;;;;;8.04;49.69;101838.31;444766;119;922622;-76
2021/10/25 00:17:11;;;;;;;3.96;1.07;;;;;;;8.02;49.68;101834.91;444816;119;922684;-76
2021/10/25 00:18:15;;;;;;;2.78;1.09;;;;;;;8.03;49.71;101835.77;445294;119;922545;-76
2021/10/25 00:19:19;;;;;;;2.84;1.33;;;;;;;7.99;49.60;101837.13;445594;119;922895;-75
2021/10/25 00:20:25;;;;;;;1.03;0.90;;;;;;;7.95;49.65;101834.72;445427;119;922464;-75
2021/10/25 00:21:29;;;;;;;1.22;0.76;;;;;;;7.94;49.59;101835.73;445209;117;923154;-75
2021/10/25 00:22:33;;;;;;;1.95;1.02;;;;;;;7.92;49.59;101842.36;445521;117;922485;-76
2021/10/25 00:23:37;;;;;;;2.23;0.88;;;;;;;7.92;49.68;101847.80;445132;119;922863;-75
2021/10/25 00:24:43;;;;;;;0.91;0.77;;;;;;;7.91;49.61;101841.52;445294;117;923007;-76
2021/10/25 00:25:47;;;;;;;0.96;0.90;;;;;;;7.90;49.44;101841.67;445411;119;922580;-75
2021/10/25 00:26:50;;;;;;;1.14;0.87;;;;;;;7.85;49.34;101847.61;445414;117;922622;-76
2021/10/25 00:27:53;;;;;;;3.09;0.91;;;;;;;7.88;49.20;101836.40;445418;117;930719;-75
2021/10/25 00:28:57;;;;;;;1.09;0.81;;;;;;;7.89;49.13;101848.97;444735;117;923309;-75
2021/10/25 00:30:01;;;;;;;1.20;0.91;;;;;;;7.89;48.94;101848.11;445432;117;922546;-75
2021/10/25 00:31:05;;;;;;;0.86;0.75;;;;;;;7.89;48.83;101854.39;445775;119;922455;-76
2021/10/25 00:32:08;;;;;;;0.70;0.70;;;;;;;7.88;48.59;101849.97;445399;117;922493;-76
2021/10/25 00:33:12;;;;;;;2.07;1.13;;;;;;;7.85;48.41;101853.03;445232;117;923215;-76
2021/10/25 00:34:16;;;;;;;1.37;1.01;;;;;;;7.82;48.22;101853.38;444815;117;922510;-74
2021/10/25 00:35:19;;;;;;;0.69;0.69;;;;;;;7.84;48.32;101859.48;445453;117;930179;-76
2021/10/25 00:36:23;;;;;;;0.99;0.74;;;;;;;7.84;48.22;101861.34;445221;119;922517;-75
2021/10/25 00:37:27;;;;;;;0.82;0.78;;;;;;;7.86;47.93;101862.89;445490;117;922563;-74
2021/10/25 00:38:30;;;;;;;1.36;0.66;;;;;;;7.79;47.10;101864.56;445208;119;930202;-76
2021/10/25 00:39:34;;;;;;;1.22;0.59;;;;;;;7.81;47.39;101858.97;445480;119;930256;-75
2021/10/25 00:40:38;;;;;;;0.98;0.76;;;;;;;7.82;47.35;101858.81;445553;119;930439;-76
2021/10/25 00:41:43;;;;;;;1.08;0.72;;;;;;;7.83;47.01;101870.50;445029;117;922578;-75
2021/10/25 00:42:46;;;;;;;0.91;0.91;;;;;;;7.84;47.24;101870.34;445546;117;922918;-76
2021/10/25 00:43:51;;;;;;;1.02;0.83;;;;;;;7.81;46.68;101867.11;437065;119;923037;-76
2021/10/25 00:44:55;;;;;;;1.49;0.68;;;;;;;7.85;46.93;101872.05;433470;119;923108;-75
2021/10/25 00:45:59;;;;;;;0.67;0.66;;;;;;;7.84;46.47;101874.91;445600;117;922403;-76
2021/10/25 00:47:03;;;;;;;0.51;0.51;;;;;;;7.85;46.44;101882.05;446083;119;922117;-76
2021/10/25 00:48:06;;;;;;;0.65;0.58;;;;;;;7.84;46.59;101875.77;446394;119;922591;-76
2021/10/25 00:49:10;;;;;;;0.70;0.70;;;;;;;7.87;46.68;101888.18;446377;119;923129;-75
2021/10/25 00:50:14;;;;;;;0.82;0.71;;;;;;;7.87;46.39;101882.75;446293;119;922687;-75
2021/10/25 00:51:18;;;;;;;1.36;0.83;;;;;;;7.88;46.30;101882.56;446425;119;922759;-76
2021/10/25 00:52:22;;;;;;;0.88;0.72;;;;;;;7.85;46.05;101891.05;446038;119;922637;-74
2021/10/25 00:53:25;;;;;;;0.69;0.61;;;;;;;7.86;46.10;101891.91;445294;119;930069;-76
2021/10/25 00:54:33;;;;;;;1.08;0.62;;;;;;;7.85;46.20;101891.05;446034;119;922573;-75
2021/10/25 00:55:39;;;;;;;1.07;0.74;;;;;;;7.83;45.93;101890.36;445717;119;922592;-76
2021/10/25 00:56:45;;;;;;;0.70;0.60;;;;;;;7.80;44.80;101893.41;445896;119;922445;-76
2021/10/25 00:57:49;;;;;;;0.76;0.71;;;;;;;7.78;45.05;101897.30;445699;119;922523;-78
2021/10/25 00:58:52;;;;;;;0.68;0.68;;;;;;;7.76;45.07;101902.91;445989;119;922836;-76
2021/10/25 00:59:56;;;;;;;0.91;0.72;;;;;;;7.72;44.88;101903.41;445892;118;922498;-77
2021/10/25 01:01:00;;;;;;;0.69;0.69;;;;;;;7.71;44.97;101909.84;445980;119;922739;-76
2021/10/25 01:02:04;;;;;;;0.69;0.63;;;;;;;7.72;45.04;101906.12;445772;117;930097;-76
2021/10/25 01:03:08;;;;;;;0.60;0.49;;;;;;;7.72;44.84;101914.27;445797;119;930010;-77
2021/10/25 01:04:12;;;;;;;0.61;0.57;;;;;;;7.71;44.79;101913.42;445722;119;922471;-75
2021/10/25 01:05:16;;;;;;;6.48;0.65;;;;;;;7.69;44.70;101918.14;445278;119;929708;-76
2021/10/25 01:06:21;;;;;;;0.61;0.61;;;;;;;7.69;44.69;101920.86;445746;119;922252;-76
2021/10/25 01:07:26;;;;;;;0.75;0.55;;;;;;;7.70;44.56;101916.28;446188;119;922304;-75
2021/10/25 01:08:34;;;;;;;0.56;0.51;;;;;;;7.68;43.82;101918.30;446403;119;922344;-76
2021/10/25 01:09:38;;;;;;;0.92;0.39;;;;;;;7.68;43.66;101924.58;446420;117;922344;-75
2021/10/25 01:10:42;;;;;;;0.51;0.40;;;;;;;7.68;43.00;101931.87;438386;119;922722;-75
2021/10/25 01:11:48;;;;;;;0.75;0.51;;;;;;;7.68;42.90;101934.59;445868;119;922987;-74
2021/10/25 01:12:53;;;;;;;1.21;0.55;;;;;;;7.66;42.54;101925.78;438402;120;922215;-74
2021/10/25 01:13:57;;;;;;;0.63;0.55;;;;;;;7.65;42.21;101930.35;440131;119;922471;-75
2021/10/25 01:15:01;;;;;;;0.80;0.57;;;;;;;7.61;41.57;101930.84;439105;121;922356;-74
2021/10/25 01:16:06;;;;;;;2.45;0.40;;;;;;;7.63;42.16;101929.66;446343;117;922300;-75
2021/10/25 01:17:09;;;;;;;2.08;0.50;;;;;;;7.65;42.31;101926.78;445901;119;922701;-77
2021/10/25 01:18:14;;;;;;;1.39;0.51;;;;;;;7.63;41.87;101937.80;446125;119;930438;-77
2021/10/25 01:19:20;;;;;;;5.77;0.73;;;;;;;7.63;41.67;101945.09;445938;119;922226;-76
2021/10/25 01:20:28;;;;;;;1.31;0.86;;;;;;;7.62;41.83;101954.23;446207;118;922884;-76
2021/10/25 01:21:32;;;;;;;1.73;0.90;;;;;;;7.61;41.90;101952.56;446738;117;922371;-76
2021/10/25 01:22:37;;;;;;;2.32;1.48;;;;;;;7.62;42.00;101946.95;445604;117;922867;-75
2021/10/25 01:23:41;;;;;;;1.05;0.95;;;;;;;7.61;41.98;101947.95;446490;119;922737;-75
2021/10/25 01:24:46;;;;;;;2.66;0.75;;;;;;;7.60;42.01;101948.99;446140;119;922633;-75
2021/10/25 01:25:55;;;;;;;1.21;0.47;;;;;;;7.61;42.02;101955.28;446508;118;922434;-75
2021/10/25 01:26:59;;;;;;;0.48;0.40;;;;;;;7.62;42.13;101954.23;446312;117;922332;-76
2021/10/25 01:28:03;;;;;;;0.59;0.50;;;;;;;7.61;42.20;101964.24;446198;119;922405;-75
2021/10/25 01:29:06;;;;;;;0.51;0.50;;;;;;;7.60;42.32;101967.14;446346;119;922290;-75
2021/10/25 01:30:10;;;;;;;0.39;0.39;;;;;;;7.60;42.32;101967.14;446400;119;930286;-76
2021/10/25 01:31:15;;;;;;;0.34;0.34;;;;;;;7.61;42.33;101966.14;436488;119;922517;-75
2021/10/25 01:32:19;;;;;;;0.38;0.38;;;;;;;7.62;42.41;101967.81;434578;119;922819;-74
2021/10/25 01:33:23;;;;;;;2.96;0.53;;;;;;;7.59;42.35;101973.58;446142;119;922228;-75
2021/10/25 01:34:27;;;;;;;0.38;0.38;;;;;;;7.61;42.57;101968.84;435336;119;922414;-76
2021/10/25 01:35:31;;;;;;;0.64;0.40;;;;;;;7.61;42.61;101972.38;446044;119;922868;-77
2021/10/25 01:36:36;;;;;;;0.52;0.33;;;;;;;7.59;42.62;101979.86;445832;119;930078;-74
2021/10/25 01:37:40;;;;;;;0.30;0.30;;;;;;;7.62;42.70;101987.66;446447;118;923220;-75
2021/10/25 01:38:44;;;;;;;1.28;0.27;;;;;;;7.60;42.79;101981.56;446415;119;929947;-75
2021/10/25 01:39:49;;;;;;;0.20;0.20;;;;;;;7.60;42.85;101987.00;446432;118;922189;-75
2021/10/25 01:40:52;;;;;;;0.98;0.31;;;;;;;7.60;42.96;101986.14;446370;119;922173;-75
2021/10/25 01:41:56;;;;;;;0.84;0.25;;;;;;;7.61;43.06;101991.39;438493;121;929858;-75
2021/10/25 01:43:01;;;;;;;1.44;0.30;;;;;;;7.59;43.19;101998.86;445686;119;922445;-76
2021/10/25 01:44:11;;;;;;;0.32;0.29;;;;;;;7.60;43.21;101997.85;445730;119;930100;-75
2021/10/25 01:45:15;;;;;;;0.31;0.24;;;;;;;7.60;43.30;101995.14;445357;119;922483;-76
2021/10/25 01:46:19;;;;;;;0.34;0.31;;;;;;;7.60;43.43;101995.14;445544;117;922620;-76
2021/10/25 01:47:23;;;;;;;0.39;0.39;;;;;;;7.61;43.48;101996.81;445348;117;922389;-75
2021/10/25 01:48:26;;;;;;;0.31;0.29;;;;;;;7.62;43.55;102000.38;445807;119;929818;-75
2021/10/25 01:49:30;;;;;;;1.27;0.29;;;;;;;7.60;43.76;102000.56;446018;117;930210;-76
2021/10/25 01:50:34;;;;;;;0.55;0.46;;;;;;;7.62;43.76;102003.95;445666;117;922561;-75
2021/10/25 01:51:37;;;;;;;0.76;0.35;;;;;;;7.62;43.84;102006.66;445685;117;922383;-76
2021/10/25 01:52:41;;;;;;;0.62;0.43;;;;;;;7.60;43.91;102014.14;445821;117;922827;-75
2021/10/25 01:53:46;;;;;;;1.61;0.50;;;;;;;7.56;44.07;102007.30;445803;117;929931;-75
2021/10/25 01:54:50;;;;;;;0.52;0.37;;;;;;;7.53;44.16;102013.92;445608;119;923043;-75
2021/10/25 01:55:59;;;;;;;0.45;0.30;;;;;;;7.52;44.21;102016.79;445678;117;922521;-75
2021/10/25 01:57:07;;;;;;;0.46;0.32;;;;;;;7.51;44.30;102015.94;437923;119;922605;-74
2021/10/25 01:58:08;;;;;;;0.53;0.48;;;;;;;7.52;44.33;102014.08;438278;119;923060;-74
2021/10/25 01:59:12;;;;;;;0.51;0.32;;;;;;;7.49;44.40;102017.98;445407;117;923022;-74
2021/10/25 02:00:16;;;;;;;0.59;0.52;;;;;;;7.48;44.39;102018.12;445779;117;930068;-76
2021/10/25 02:01:23;;;;;;;0.21;0.21;;;;;;;7.45;44.49;102024.71;445475;117;922595;-75
2021/10/25 02:02:26;;;;;;;0.59;0.44;;;;;;;7.42;44.56;102018.77;445580;119;922730;-77
2021/10/25 02:03:33;;;;;;;0.38;0.29;;;;;;;7.41;44.63;102017.91;445691;117;922629;-75
2021/10/25 02:04:39;;;;;;;0.30;0.30;;;;;;;7.42;44.66;102024.19;444965;119;922655;-75
2021/10/25 02:05:44;;;;;;;0.39;0.35;;;;;;;7.41;44.60;102027.91;445507;119;922586;-73
2021/10/25 02:06:48;;;;;;;1.91;0.49;;;;;;;7.39;44.63;102019.91;444855;117;922600;-76
2021/10/25 02:07:51;;;;;;;0.79;0.53;;;;;;;7.38;44.68;102025.52;445689;115;930222;-76
2021/10/25 02:08:54;;;;;;;0.64;0.51;;;;;;;7.37;44.71;102026.53;445342;119;930138;-75
2021/10/25 02:09:59;;;;;;;1.00;0.40;;;;;;;7.37;44.76;102026.53;446062;117;930182;-75
2021/10/25 02:11:03;;;;;;;0.86;0.41;;;;;;;7.39;44.82;102029.91;445392;118;922664;-75
2021/10/25 02:12:08;;;;;;;0.44;0.44;;;;;;;7.39;44.75;102035.34;445520;119;930151;-75
2021/10/25 02:13:15;;;;;;;0.49;0.36;;;;;;;7.40;44.80;102031.62;445239;119;922866;-76
2021/10/25 02:14:18;;;;;;;1.84;0.41;;;;;;;7.41;44.77;102033.33;445706;119;930173;-75
2021/10/25 02:15:24;;;;;;;0.36;0.36;;;;;;;7.37;44.68;102038.23;439742;120;922890;-75
2021/10/25 02:16:30;;;;;;;0.72;0.55;;;;;;;7.37;44.69;102027.38;440053;118;922540;-75
2021/10/25 02:17:34;;;;;;;0.81;0.30;;;;;;;7.30;44.58;102030.88;445776;117;922775;-75
2021/10/25 02:18:38;;;;;;;0.39;0.34;;;;;;;7.26;44.52;102024.08;445807;119;922898;-76
2021/10/25 02:19:43;;;;;;;0.60;0.60;;;;;;;7.22;44.62;102030.83;444874;119;930037;-75
2021/10/25 02:20:50;;;;;;;1.02;0.75;;;;;;;7.19;44.68;102034.70;445519;117;922940;-77
2021/10/25 02:21:55;;;;;;;0.73;0.44;;;;;;;7.17;44.68;102035.88;436932;120;922933;-76
2021/10/25 02:22:59;;;;;;;0.58;0.50;;;;;;;7.16;44.76;102042.31;439358;119;922968;-76
2021/10/25 02:24:05;;;;;;;0.57;0.47;;;;;;;7.14;44.77;102037.03;438484;120;922605;-76
2021/10/25 02:25:12;;;;;;;1.31;0.41;;;;;;;7.11;44.85;102035.47;439724;119;923844;-75
2021/10/25 02:26:18;;;;;;;0.61;0.61;;;;;;;7.09;44.87;102039.36;445277;117;922670;-75
2021/10/25 02:27:21;;;;;;;1.24;0.40;;;;;;;7.05;44.94;102052.40;445729;117;922521;-75
2021/10/25 02:28:26;;;;;;;0.50;0.50;;;;;;;7.01;45.20;102058.27;444966;119;930141;-75
2021/10/25 02:29:38;;;;;;;0.37;0.36;;;;;;;6.96;45.17;102047.03;445539;119;922766;-75
2021/10/25 02:30:43;;;;;;;0.94;0.64;;;;;;;6.93;45.22;102044.64;444754;119;922955;-75
2021/10/25 02:31:47;;;;;;;0.79;0.57;;;;;;;6.87;45.59;102048.83;433386;122;922575;-76
2021/10/25 02:32:51;;;;;;;0.80;0.77;;;;;;;6.86;45.54;102055.25;433540;120;930198;-74
2021/10/25 02:33:54;;;;;;;2.21;0.60;;;;;;;6.77;46.02;102063.47;445574;119;930720;-75
2021/10/25 02:34:59;;;;;;;0.61;0.57;;;;;;;6.67;46.21;102060.84;445443;119;922883;-74
2021/10/25 02:36:07;;;;;;;0.51;0.49;;;;;;;6.63;46.25;102064.84;445161;119;930148;-75
2021/10/25 02:37:14;;;;;;;0.67;0.64;;;;;;;6.56;46.34;102067.30;445293;119;923020;-75
2021/10/25 02:38:18;;;;;;;0.59;0.59;;;;;;;6.49;46.66;102068.94;445282;119;922669;-76
2021/10/25 02:39:24;;;;;;;0.59;0.59;;;;;;;6.47;46.54;102065.52;444804;118;922817;-76
2021/10/25 02:40:29;;;;;;;1.72;0.55;;;;;;;6.45;46.55;102072.92;444719;118;922529;-75
2021/10/25 02:41:34;;;;;;;0.68;0.68;;;;;;;6.43;46.66;102068.68;445430;119;930264;-76
2021/10/25 02:42:37;;;;;;;0.99;0.67;;;;;;;6.40;46.81;102071.67;445627;119;922505;-75
2021/10/25 02:43:41;;;;;;;0.72;0.46;;;;;;;6.37;46.85;102066.58;445602;119;923069;-75
2021/10/25 02:44:45;;;;;;;0.72;0.72;;;;;;;6.37;46.76;102071.99;445578;119;930701;-75
2021/10/25 02:45:50;;;;;;;0.62;0.58;;;;;;;6.33;46.96;102073.30;444453;117;923229;-74
2021/10/25 02:46:54;;;;;;;0.50;0.50;;;;;;;6.33;46.90;102076.02;445536;119;922588;-76
2021/10/25 02:47:57;;;;;;;1.01;0.76;;;;;;;6.29;47.01;102079.00;445234;117;922572;-75
2021/10/25 02:49:02;;;;;;;0.86;0.82;;;;;;;6.27;47.10;102081.03;445545;119;922928;-77
2021/10/25 02:50:06;;;;;;;0.78;0.65;;;;;;;6.26;47.21;102086.59;445461;119;928893;-76
2021/10/25 02:51:09;;;;;;;0.85;0.71;;;;;;;6.23;47.28;102087.73;445626;119;922544;-76
2021/10/25 02:52:13;;;;;;;0.64;0.53;;;;;;;6.18;47.51;102092.75;445252;119;922637;-75
2021/10/25 02:53:17;;;;;;;1.48;0.70;;;;;;;6.16;47.54;102086.64;444838;119;930169;-76
2021/10/25 02:54:24;;;;;;;1.09;0.66;;;;;;;6.14;47.67;102090.49;445662;119;922979;-76
2021/10/25 02:55:28;;;;;;;0.69;0.67;;;;;;;6.13;47.65;102095.05;445519;119;922670;-75
2021/10/25 02:56:33;;;;;;;0.91;0.49;;;;;;;6.13;47.68;102094.20;445817;119;922237;-76
2021/10/25 02:57:38;;;;;;;1.01;0.72;;;;;;;6.10;47.78;102099.92;437477;121;922699;-74
2021/10/25 02:58:42;;;;;;;0.74;0.70;;;;;;;6.08;47.70;102102.77;438082;119;922590;-76
2021/10/25 02:59:45;;;;;;;0.78;0.62;;;;;;;6.09;47.72;102101.77;445789;117;922481;-76
2021/10/25 03:00:48;;;;;;;0.98;0.47;;;;;;;6.10;47.84;102103.48;445402;117;922545;-76
2021/10/25 03:01:52;;;;;;;0.54;0.51;;;;;;;6.12;47.76;102108.77;445298;117;922643;-75
2021/10/25 03:02:58;;;;;;;0.53;0.53;;;;;;;6.09;47.69;102112.61;445317;119;922556;-76
2021/10/25 03:04:02;;;;;;;0.56;0.56;;;;;;;6.12;47.63;102108.77;445750;117;922711;-77
2021/10/25 03:05:06;;;;;;;1.25;1.09;;;;;;;6.11;47.59;102115.17;445500;119;923069;-75
2021/10/25 03:06:10;;;;;;;0.48;0.48;;;;;;;6.08;47.67;102121.73;445511;118;922575;-75
2021/10/25 03:07:13;;;;;;;0.90;0.56;;;;;;;6.09;47.53;102115.31;445345;119;930223;-75
2021/10/25 03:08:18;;;;;;;1.55;0.63;;;;;;;6.11;47.57;102107.05;445100;119;930309;-75
2021/10/25 03:09:22;;;;;;;0.68;0.66;;;;;;;6.11;47.43;102112.47;445397;119;922891;-75
2021/10/25 03:10:27;;;;;;;0.68;0.58;;;;;;;6.07;47.15;102111.03;444739;119;930808;-76
2021/10/25 03:11:31;;;;;;;0.50;0.50;;;;;;;6.05;46.99;102113.91;445587;119;923361;-76
2021/10/25 03:12:34;;;;;;;0.51;0.51;;;;;;;6.00;47.18;102113.51;445402;119;923001;-75
2021/10/25 03:13:39;;;;;;;0.88;0.51;;;;;;;6.00;47.10;102124.34;445569;119;923021;-75
2021/10/25 03:14:44;;;;;;;1.41;0.59;;;;;;;6.01;47.20;102117.07;445451;119;922569;-76
2021/10/25 03:15:48;;;;;;;0.71;0.50;;;;;;;6.03;47.23;102123.17;445618;119;922893;-76
2021/10/25 03:16:52;;;;;;;2.60;0.49;;;;;;;6.00;47.22;102124.34;445186;119;922853;-76
2021/10/25 03:17:55;;;;;;;1.37;0.49;;;;;;;6.04;47.17;102114.05;445485;117;922658;-75
2021/10/25 03:19:01;;;;;;;0.54;0.54;;;;;;;6.05;47.16;102124.74;445295;117;930144;-76
2021/10/25 03:20:05;;;;;;;1.16;0.45;;;;;;;6.07;47.12;102113.74;446457;118;923130;-75
2021/10/25 03:21:09;;;;;;;0.54;0.54;;;;;;;6.10;47.08;102118.88;446367;118;930290;-75
2021/10/25 03:22:13;;;;;;;1.04;0.50;;;;;;;6.13;47.11;102119.42;446467;118;930683;-76
2021/10/25 03:23:17;;;;;;;0.98;0.42;;;;;;;6.10;46.98;102124.30;446498;118;922841;-76
2021/10/25 03:24:21;;;;;;;0.87;0.49;;;;;;;6.13;46.98;102122.13;446509;118;922668;-74
2021/10/25 03:25:24;;;;;;;0.56;0.56;;;;;;;6.14;47.02;102118.43;446346;118;922546;-75
2021/10/25 03:26:29;;;;;;;1.05;0.50;;;;;;;6.14;46.89;102121.13;446492;118;922494;-75
2021/10/25 03:27:32;;;;;;;0.68;0.60;;;;;;;6.17;46.88;102120.00;446194;118;930259;-75
2021/10/25 03:28:36;;;;;;;0.66;0.63;;;;;;;6.11;46.86;102121.45;446363;118;922896;-76
2021/10/25 03:29:40;;;;;;;1.44;0.59;;;;;;;6.11;46.80;102118.73;436004;121;922867;-75
2021/10/25 03:30:44;;;;;;;0.78;0.42;;;;;;;6.12;46.84;102122.30;436185;118;930358;-75
2021/10/25 03:31:48;;;;;;;0.65;0.50;;;;;;;6.13;46.89;102124.84;446371;118;922673;-76
2021/10/25 03:32:52;;;;;;;0.56;0.56;;;;;;;6.16;46.95;102121.85;446277;118;922926;-75
2021/10/25 03:33:57;;;;;;;0.51;0.51;;;;;;;6.15;46.83;102125.56;432277;118;922942;-75
2021/10/25 03:35:03;;;;;;;0.59;0.58;;;;;;;6.14;46.85;102123.84;445571;118;922966;-76
2021/10/25 03:36:07;;;;;;;1.29;0.62;;;;;;;6.17;46.77;102126.27;445951;118;923340;-75
2021/10/25 03:37:10;;;;;;;1.26;0.66;;;;;;;6.17;46.82;102130.84;446049;118;922647;-75
2021/10/25 03:38:16;;;;;;;0.70;0.38;;;;;;;6.16;46.85;102121.00;445866;116;922555;-76
2021/10/25 03:39:23;;;;;;;0.96;0.57;;;;;;;6.16;46.84;102127.27;455466;116;930142;-75
2021/10/25 03:40:27;;;;;;;0.93;0.74;;;;;;;6.19;46.94;102136.94;455866;116;922611;-74
2021/10/25 03:41:37;;;;;;;0.62;0.49;;;;;;;6.21;46.94;102133.09;446486;118;922641;-76
2021/10/25 03:42:46;;;;;;;1.31;0.50;;;;;;;6.24;46.83;102132.78;446633;118;922353;-76
2021/10/25 03:43:57;;;;;;;1.46;0.61;;;;;;;6.29;46.86;102133.18;446787;118;922311;-74
2021/10/25 03:46:23;;;;;;;1.01;0.40;;;;;;;6.35;46.68;102131.73;445981;118;922432;-75
2021/10/25 03:47:27;;;;;;;1.61;0.46;;;;;;;6.39;46.69;102137.72;445884;116;922673;-78
2021/10/25 03:48:40;;;;;;;0.63;0.50;;;;;;;6.42;46.51;102129.28;436096;121;923142;-74
2021/10/25 03:49:42;;;;;;;1.66;0.68;;;;;;;6.43;46.39;102128.28;436777;118;922734;-73
2021/10/25 03:50:48;;;;;;;0.57;0.52;;;;;;;6.44;46.38;102130.86;439263;118;922784;-75
2021/10/25 03:51:53;;;;;;;1.55;0.48;;;;;;;6.44;46.40;102125.44;445955;118;922617;-74
2021/10/25 03:53:22;;;;;;;0.77;0.42;;;;;;;6.46;46.48;102133.39;446245;118;923142;-76
2021/10/25 03:54:29;;;;;;;2.67;0.52;;;;;;;6.49;46.51;102138.53;445707;118;922687;-75
2021/10/25 03:56:49;;;;;;;0.73;0.55;;;;;;;6.51;46.00;102136.50;446367;118;922631;-74
2021/10/25 04:26:46;;;;;;;0.46;0.45;;;;;;;6.27;46.46;102188.52;468873;112;923151;-75
2021/10/25 04:27:50;;;;;;;3.99;0.92;;;;;;;6.28;46.54;102187.53;468637;112;922701;-76
2021/10/25 04:28:53;;;;;;;1.49;0.67;;;;;;;6.31;46.60;102191.78;469898;112;922736;-74
2021/10/25 04:30:06;;;;;;;0.54;0.48;;;;;;;6.37;46.61;102188.48;463919;113;923063;-76
2021/10/25 04:31:02;;;;;;;4.79;0.63;;;;;;;6.42;46.68;102191.59;461340;112;922571;-76
2021/10/25 04:32:08;;;;;;;3.60;0.72;;;;;;;6.47;46.52;102189.29;468399;112;922491;-75
2021/10/25 04:33:11;;;;;;;2.34;0.65;;;;;;;6.52;46.43;102192.41;470561;112;922637;-74
2021/10/25 04:34:17;;;;;;;5.87;0.78;;;;;;;6.55;46.40;102192.98;468620;111;922734;-76
2021/10/25 04:35:27;;;;;;;;;;;;;;;6.58;46.37;102197.23;473267;112;922157;-75
2021/10/25 04:36:49;;;;;;;0.46;0.40;;;;;;;6.61;46.12;102196.95;468310;112;922362;-75
2021/10/25 04:38:11;;;;;;;1.06;0.57;;;;;;;6.62;46.19;102204.05;460158;114;923064;-76
2021/10/25 04:39:15;;;;;;;1.43;0.59;;;;;;;6.62;46.10;102207.62;459242;114;922535;-74
2021/10/25 04:40:20;;;;;;;1.02;0.73;;;;;;;6.62;45.95;102206.77;458804;112;923005;-76
2021/10/25 04:41:23;;;;;;;4.44;0.71;;;;;;;6.60;45.96;102197.95;468617;112;922721;-75
2021/10/25 04:42:27;;;;;;;0.54;0.42;;;;;;;6.58;46.02;102203.51;469038;112;922681;-74
2021/10/25 04:43:31;;;;;;;1.14;0.70;;;;;;;6.58;46.04;102210.78;470817;112;930171;-75
2021/10/25 04:44:34;;;;;;;0.77;0.58;;;;;;;6.58;46.06;102208.07;467374;111;922933;-75
2021/10/25 04:45:39;;;;;;;3.54;1.15;;;;;;;6.58;46.11;102208.07;467757;112;922645;-77
2021/10/25 04:46:43;;;;;;;1.96;0.75;;;;;;;6.58;46.06;102210.78;468857;112;923026;-76
2021/10/25 04:47:46;;;;;;;1.38;1.12;;;;;;;6.58;46.10;102214.34;470533;112;922661;-76
2021/10/25 04:48:52;;;;;;;6.94;1.79;;;;;;;6.60;46.13;102211.50;465947;112;922812;-76
2021/10/25 04:50:00;;;;;;;1.26;0.80;;;;;;;6.60;46.03;102214.21;468961;111;922919;-76
2021/10/25 04:51:23;;;;;;;1.29;0.80;;;;;;;6.60;45.92;102216.92;455262;114;922803;-73
2021/10/25 04:52:32;;;;;;;1.06;0.82;;;;;;;6.59;45.88;102221.48;455197;114;923313;-74
2021/10/25 04:53:35;;;;;;;1.28;0.83;;;;;;;6.57;45.45;102212.63;455062;114;923336;-75
2021/10/25 04:54:40;;;;;;;2.84;1.05;;;;;;;6.54;45.27;102217.52;453951;114;922967;-76
2021/10/25 04:55:51;;;;;;;1.03;0.71;;;;;;;6.58;45.21;102227.90;471049;110;948223;-76
2021/10/25 04:56:54;;;;;;;1.28;0.94;;;;;;;6.43;45.24;102226.68;463968;112;922522;-77
2021/10/25 04:57:58;;;;;;;1.60;0.73;;;;;;;6.38;45.41;102228.98;461484;114;922854;-75
2021/10/25 04:59:01;;;;;;;2.28;1.04;;;;;;;6.32;45.46;102228.70;460546;112;930287;-75
2021/10/25 05:00:06;;;;;;;1.70;0.49;;;;;;;6.23;45.52;102236.70;460620;112;922526;-76
2021/10/25 05:01:10;;;;;;;1.92;0.62;;;;;;;6.18;45.51;102238.14;460161;112;923171;-75
2021/10/25 05:02:14;;;;;;;1.81;0.69;;;;;;;6.09;45.67;102242.59;463433;111;922917;-75
2021/10/25 05:03:19;;;;;;;3.26;0.81;;;;;;;6.03;45.77;102248.58;464180;111;922628;-76
2021/10/25 05:04:23;;;;;;;1.51;0.81;;;;;;;5.98;45.89;102245.45;462131;112;922361;-76
2021/10/25 05:05:27;;;;;;;1.86;1.11;;;;;;;5.90;46.18;102249.89;459887;115;922612;-75
2021/10/25 05:06:30;;;;;;;1.73;1.31;;;;;;;5.90;46.13;102247.19;463681;112;922559;-75
2021/10/25 05:07:34;;;;;;;3.95;0.88;;;;;;;5.88;46.15;102246.46;464669;111;922859;-76
2021/10/25 05:08:38;;;;;;;2.14;0.92;;;;;;;5.85;46.36;102250.27;461061;112;930211;-74
2021/10/25 05:09:41;;;;;;;1.69;0.98;;;;;;;5.85;46.32;102247.55;460918;114;922919;-75
2021/10/25 05:10:45;;;;;;;1.79;1.16;;;;;;;5.84;46.39;102251.28;462147;112;922737;-76
2021/10/25 05:11:49;;;;;;;1.42;0.77;;;;;;;5.84;46.49;102253.99;466466;111;930465;-74
2021/10/25 05:12:52;;;;;;;1.08;0.73;;;;;;;5.85;46.52;102263.80;464056;112;922800;-77
2021/10/25 05:13:55;;;;;;;1.29;0.56;;;;;;;5.85;46.48;102261.95;461206;114;923307;-76
2021/10/25 05:14:59;;;;;;;1.81;0.71;;;;;;;5.85;46.52;102261.09;461616;112;923007;-76
2021/10/25 05:16:03;;;;;;;4.05;0.80;;;;;;;5.83;46.54;102265.81;462384;113;922914;-76
2021/10/25 05:17:07;;;;;;;2.36;0.66;;;;;;;5.81;46.56;102268.66;458606;112;923023;-74
2021/10/25 05:18:10;;;;;;;7.32;0.91;;;;;;;5.81;46.60;102267.80;460917;114;922919;-75
2021/10/25 05:19:14;;;;;;;3.09;0.64;;;;;;;5.79;46.68;102270.63;459972;113;922757;-76
2021/10/25 05:20:20;;;;;;;2.28;0.84;;;;;;;5.80;46.65;102266.08;459860;113;922735;-75
2021/10/25 05:21:25;;;;;;;1.92;0.80;;;;;;;5.80;46.69;102274.20;461576;113;922604;-75
2021/10/25 05:22:29;;;;;;;1.30;0.75;;;;;;;5.75;46.56;102268.36;461645;112;930216;-75
2021/10/25 05:23:33;;;;;;;3.14;0.64;;;;;;;5.77;46.58;102283.48;461942;113;922506;-76
2021/10/25 05:24:39;;;;;;;0.98;0.68;;;;;;;5.76;46.66;102284.47;461589;112;922547;-75
2021/10/25 05:25:44;;;;;;;1.66;1.28;;;;;;;5.75;46.67;102288.16;462727;114;922625;-76
2021/10/25 05:26:47;;;;;;;2.68;1.38;;;;;;;5.75;46.61;102284.59;462352;112;922592;-75
2021/10/25 05:27:51;;;;;;;11.88;2.16;;;;;;;5.74;46.55;102293.71;463067;112;922529;-76
2021/10/25 05:28:54;;;;;;;2.98;0.59;;;;;;;5.64;46.61;102291.00;461564;111;922484;-74
2021/10/25 05:29:58;;;;;;;5.75;1.09;;;;;;;5.61;46.49;102293.15;461466;112;923003;-75
2021/10/25 05:31:02;;;;;;;4.37;0.86;;;;;;;5.60;46.58;102286.02;460724;113;922474;-75
2021/10/25 05:32:09;;;;;;;2.24;0.70;;;;;;;5.58;46.65;102296.12;462193;112;922509;-73